sensor_id;sensor_type;location;lat;lon;timestamp;pressure;altitude;pressure_sealevel;temperature;humidity
8653;BME280;4364;52.426;9.424;2023-04-23T00:01:05;100147.34;;;14.22;95.03
8653;BME280;4364;52.426;9.424;2023-04-23T00:03:32;100143.00;;;14.21;95.26
8653;BME280;4364;52.426;9.424;2023-04-23T00:06:03;100144.66;;;14.31;94.99
8653;BME280;4364;52.426;9.424;2023-04-23T00:08:31;100150.13;;;14.31;94.31
8653;BME280;4364;52.426;9.424;2023-04-23T00:10:58;100143.66;;;14.26;94.93
8653;BME280;4364;52.426;9.424;2023-04-23T00:13:26;100148.16;;;14.22;94.54
8653;BME280;4364;52.426;9.424;2023-04-23T00:15:53;100142.22;;;14.29;94.61
8653;BME280;4364;52.426;9.424;2023-04-23T00:18:20;100140.13;;;14.26;94.69
8653;BME280;4364;52.426;9.424;2023-04-23T00:20:46;100137.34;;;14.17;95.21
8653;BME280;4364;52.426;9.424;2023-04-23T00:23:13;100136.03;;;14.15;95.42
8653;BME280;4364;52.426;9.424;2023-04-23T00:25:39;100140.22;;;14.12;96.45
8653;BME280;4364;52.426;9.424;2023-04-23T00:28:06;100137.00;;;14.10;95.85
8653;BME280;4364;52.426;9.424;2023-04-23T00:30:32;100142.16;;;14.12;94.43
8653;BME280;4364;52.426;9.424;2023-04-23T00:32:59;100130.03;;;14.04;93.04
8653;BME280;4364;52.426;9.424;2023-04-23T00:35:26;100144.91;;;13.89;92.14
8653;BME280;4364;52.426;9.424;2023-04-23T00:37:52;100146.72;;;13.71;93.66
8653;BME280;4364;52.426;9.424;2023-04-23T00:40:19;100148.59;;;13.62;94.71
8653;BME280;4364;52.426;9.424;2023-04-23T00:42:46;100149.19;;;13.36;96.86
8653;BME280;4364;52.426;9.424;2023-04-23T00:45:14;100147.59;;;13.35;98.08
8653;BME280;4364;52.426;9.424;2023-04-23T00:47:41;100158.84;;;13.33;99.28
8653;BME280;4364;52.426;9.424;2023-04-23T00:50:09;100148.59;;;13.25;99.59
8653;BME280;4364;52.426;9.424;2023-04-23T00:52:35;100149.44;;;13.12;100.00
8653;BME280;4364;52.426;9.424;2023-04-23T00:55:04;100159.16;;;13.04;100.00
8653;BME280;4364;52.426;9.424;2023-04-23T00:57:31;100156.75;;;13.03;100.00
8653;BME280;4364;52.426;9.424;2023-04-23T00:59:58;100156.78;;;12.89;100.00
8653;BME280;4364;52.426;9.424;2023-04-23T01:02:28;100163.13;;;12.84;100.00
8653;BME280;4364;52.426;9.424;2023-04-23T01:04:57;100161.31;;;12.93;100.00
8653;BME280;4364;52.426;9.424;2023-04-23T01:07:25;100150.41;;;12.93;100.00
8653;BME280;4364;52.426;9.424;2023-04-23T01:09:53;100150.75;;;12.78;100.00
8653;BME280;4364;52.426;9.424;2023-04-23T01:12:19;100149.03;;;12.68;100.00
8653;BME280;4364;52.426;9.424;2023-04-23T01:14:47;100151.94;;;12.72;100.00
8653;BME280;4364;52.426;9.424;2023-04-23T01:17:14;100150.72;;;12.64;100.00
8653;BME280;4364;52.426;9.424;2023-04-23T01:19:41;100146.19;;;12.73;100.00
8653;BME280;4364;52.426;9.424;2023-04-23T01:22:09;100149.31;;;12.67;100.00
8653;BME280;4364;52.426;9.424;2023-04-23T01:24:37;100144.88;;;12.57;100.00
8653;BME280;4364;52.426;9.424;2023-04-23T01:27:05;100148.31;;;12.63;100.00
8653;BME280;4364;52.426;9.424;2023-04-23T01:29:33;100147.81;;;12.60;100.00
8653;BME280;4364;52.426;9.424;2023-04-23T01:32:01;100153.88;;;12.71;100.00
8653;BME280;4364;52.426;9.424;2023-04-23T01:34:29;100153.38;;;12.55;100.00
8653;BME280;4364;52.426;9.424;2023-04-23T01:36:57;100162.03;;;12.57;100.00
8653;BME280;4364;52.426;9.424;2023-04-23T01:39:24;100140.03;;;12.54;100.00
8653;BME280;4364;52.426;9.424;2023-04-23T01:41:52;100158.41;;;12.48;100.00
8653;BME280;4364;52.426;9.424;2023-04-23T01:44:18;100159.72;;;12.51;100.00
8653;BME280;4364;52.426;9.424;2023-04-23T01:46:45;100163.88;;;12.48;100.00
8653;BME280;4364;52.426;9.424;2023-04-23T01:49:13;100160.84;;;12.50;100.00
8653;BME280;4364;52.426;9.424;2023-04-23T01:51:41;100157.81;;;12.51;100.00
8653;BME280;4364;52.426;9.424;2023-04-23T01:54:08;100162.03;;;12.57;100.00
8653;BME280;4364;52.426;9.424;2023-04-23T01:56:34;100159.72;;;12.51;100.00
8653;BME280;4364;52.426;9.424;2023-04-23T01:59:01;100164.28;;;12.41;100.00
8653;BME280;4364;52.426;9.424;2023-04-23T02:01:44;100164.28;;;12.41;100.00
8653;BME280;4364;52.426;9.424;2023-04-23T02:04:13;100170.03;;;12.40;100.00
8653;BME280;4364;52.426;9.424;2023-04-23T02:06:42;100166.06;;;12.32;100.00
8653;BME280;4364;52.426;9.424;2023-04-23T02:09:09;100166.88;;;12.33;100.00
8653;BME280;4364;52.426;9.424;2023-04-23T02:11:35;100176.88;;;12.23;100.00
8653;BME280;4364;52.426;9.424;2023-04-23T02:14:03;100177.47;;;12.20;100.00
8653;BME280;4364;52.426;9.424;2023-04-23T02:16:30;100172.50;;;12.09;100.00
8653;BME280;4364;52.426;9.424;2023-04-23T02:18:56;100173.31;;;12.09;100.00
8653;BME280;4364;52.426;9.424;2023-04-23T02:21:26;100177.16;;;12.08;100.00
8653;BME280;4364;52.426;9.424;2023-04-23T02:23:53;100177.44;;;12.07;100.00
8653;BME280;4364;52.426;9.424;2023-04-23T02:26:19;100176.75;;;12.15;100.00
8653;BME280;4364;52.426;9.424;2023-04-23T02:28:48;100179.28;;;12.11;100.00
8653;BME280;4364;52.426;9.424;2023-04-23T02:31:14;100181.28;;;12.19;100.00
8653;BME280;4364;52.426;9.424;2023-04-23T02:33:42;100180.19;;;12.07;100.00
8653;BME280;4364;52.426;9.424;2023-04-23T02:36:08;100184.78;;;12.06;99.66
8653;BME280;4364;52.426;9.424;2023-04-23T02:38:37;100184.19;;;12.09;99.31
8653;BME280;4364;52.426;9.424;2023-04-23T02:41:07;100185.34;;;12.08;100.00
8653;BME280;4364;52.426;9.424;2023-04-23T02:43:33;100180.06;;;11.98;99.93
8653;BME280;4364;52.426;9.424;2023-04-23T02:46:01;100178.75;;;11.76;100.00
8653;BME280;4364;52.426;9.424;2023-04-23T02:48:37;100185.22;;;11.80;100.00
8653;BME280;4364;52.426;9.424;2023-04-23T02:51:04;100187.50;;;11.92;100.00
8653;BME280;4364;52.426;9.424;2023-04-23T02:53:31;100178.66;;;11.81;100.00
8653;BME280;4364;52.426;9.424;2023-04-23T02:55:58;100185.22;;;11.80;100.00
8653;BME280;4364;52.426;9.424;2023-04-23T02:58:25;100185.00;;;11.77;100.00
8653;BME280;4364;52.426;9.424;2023-04-23T03:00:54;100194.34;;;11.71;100.00
8653;BME280;4364;52.426;9.424;2023-04-23T03:03:21;100194.44;;;11.65;100.00
8653;BME280;4364;52.426;9.424;2023-04-23T03:05:52;100203.78;;;11.59;100.00
8653;BME280;4364;52.426;9.424;2023-04-23T03:08:19;100192.16;;;11.54;100.00
8653;BME280;4364;52.426;9.424;2023-04-23T03:10:46;100206.38;;;11.50;100.00
8653;BME280;4364;52.426;9.424;2023-04-23T03:13:13;100210.56;;;11.62;100.00
8653;BME280;4364;52.426;9.424;2023-04-23T03:15:40;100206.50;;;11.59;100.00
8653;BME280;4364;52.426;9.424;2023-04-23T03:18:07;100206.38;;;11.50;100.00
8653;BME280;4364;52.426;9.424;2023-04-23T03:20:34;100211.81;;;11.50;100.00
8653;BME280;4364;52.426;9.424;2023-04-23T03:23:01;100214.53;;;11.31;100.00
8653;BME280;4364;52.426;9.424;2023-04-23T03:25:28;100215.56;;;11.36;100.00
8653;BME280;4364;52.426;9.424;2023-04-23T03:27:55;100217.34;;;11.26;99.55
8653;BME280;4364;52.426;9.424;2023-04-23T03:30:22;100218.22;;;11.22;100.00
8653;BME280;4364;52.426;9.424;2023-04-23T03:32:49;100217.34;;;11.26;100.00
8653;BME280;4364;52.426;9.424;2023-04-23T03:35:16;100214.91;;;11.25;100.00
8653;BME280;4364;52.426;9.424;2023-04-23T03:37:46;100213.34;;;11.19;100.00
8653;BME280;4364;52.426;9.424;2023-04-23T03:40:13;100207.47;;;11.11;100.00
8653;BME280;4364;52.426;9.424;2023-04-23T03:42:41;100215.03;;;11.15;100.00
8653;BME280;4364;52.426;9.424;2023-04-23T03:45:11;100224.38;;;11.08;100.00
8653;BME280;4364;52.426;9.424;2023-04-23T03:47:43;100220.56;;;11.09;100.00
8653;BME280;4364;52.426;9.424;2023-04-23T03:50:10;100237.09;;;11.13;100.00
8653;BME280;4364;52.426;9.424;2023-04-23T03:52:40;100229.44;;;10.96;99.60
8653;BME280;4364;52.426;9.424;2023-04-23T03:55:13;100236.25;;;10.93;99.51
8653;BME280;4364;52.426;9.424;2023-04-23T03:57:43;100228.88;;;10.94;98.00
8653;BME280;4364;52.426;9.424;2023-04-23T04:00:19;100236.97;;;10.99;97.21
8653;BME280;4364;52.426;9.424;2023-04-23T04:02:46;100250.41;;;10.90;97.55
8653;BME280;4364;52.426;9.424;2023-04-23T04:05:12;100246.97;;;10.85;97.58
8653;BME280;4364;52.426;9.424;2023-04-23T04:07:39;100249.16;;;10.83;99.06
8653;BME280;4364;52.426;9.424;2023-04-23T04:10:06;100251.47;;;10.70;98.94
8653;BME280;4364;52.426;9.424;2023-04-23T04:12:33;100252.75;;;10.78;98.73
8653;BME280;4364;52.426;9.424;2023-04-23T04:14:59;100246.31;;;10.69;99.23
8653;BME280;4364;52.426;9.424;2023-04-23T04:17:28;100251.63;;;10.79;98.72
8653;BME280;4364;52.426;9.424;2023-04-23T04:19:54;100253.94;;;10.67;99.32
8653;BME280;4364;52.426;9.424;2023-04-23T04:22:21;100249.47;;;10.81;98.62
8653;BME280;4364;52.426;9.424;2023-04-23T04:24:47;100255.88;;;10.66;98.67
8653;BME280;4364;52.426;9.424;2023-04-23T04:27:17;100263.75;;;10.68;97.45
8653;BME280;4364;52.426;9.424;2023-04-23T04:29:43;100256.88;;;10.46;97.68
8653;BME280;4364;52.426;9.424;2023-04-23T04:32:10;100253.38;;;10.41;98.07
8653;BME280;4364;52.426;9.424;2023-04-23T04:34:36;100269.69;;;10.46;98.59
8653;BME280;4364;52.426;9.424;2023-04-23T04:37:04;100266.69;;;10.42;97.89
8653;BME280;4364;52.426;9.424;2023-04-23T04:39:30;100259.59;;;10.46;97.74
8653;BME280;4364;52.426;9.424;2023-04-23T04:41:57;100276.25;;;10.40;96.95
8653;BME280;4364;52.426;9.424;2023-04-23T04:44:25;100272.25;;;10.27;96.29
8653;BME280;4364;52.426;9.424;2023-04-23T04:46:51;100269.84;;;10.20;95.12
8653;BME280;4364;52.426;9.424;2023-04-23T04:49:19;100272.00;;;10.23;93.96
8653;BME280;4364;52.426;9.424;2023-04-23T04:51:47;100269.53;;;10.27;93.65
8653;BME280;4364;52.426;9.424;2023-04-23T04:54:13;100273.63;;;10.24;93.94
8653;BME280;4364;52.426;9.424;2023-04-23T04:56:40;100280.38;;;10.32;93.34
8653;BME280;4364;52.426;9.424;2023-04-23T04:59:06;100283.88;;;10.37;93.24
8653;BME280;4364;52.426;9.424;2023-04-23T05:01:32;100286.84;;;10.41;92.99
8653;BME280;4364;52.426;9.424;2023-04-23T05:03:59;100284.91;;;10.42;92.49
8653;BME280;4364;52.426;9.424;2023-04-23T05:06:26;100286.06;;;10.35;92.92
8653;BME280;4364;52.426;9.424;2023-04-23T05:08:54;100288.25;;;10.33;93.39
8653;BME280;4364;52.426;9.424;2023-04-23T05:11:20;100288.25;;;10.28;93.05
8653;BME280;4364;52.426;9.424;2023-04-23T05:13:47;100293.97;;;10.32;93.07
8653;BME280;4364;52.426;9.424;2023-04-23T05:16:14;100285.78;;;10.37;92.53
8653;BME280;4364;52.426;9.424;2023-04-23T05:18:41;100289.38;;;10.32;92.88
8653;BME280;4364;52.426;9.424;2023-04-23T05:21:07;100281.47;;;10.31;92.45
8653;BME280;4364;52.426;9.424;2023-04-23T05:23:35;100281.75;;;10.29;91.94
8653;BME280;4364;52.426;9.424;2023-04-23T05:26:02;100288.56;;;10.27;92.07
8653;BME280;4364;52.426;9.424;2023-04-23T05:28:29;100287.97;;;10.30;92.12
8653;BME280;4364;52.426;9.424;2023-04-23T05:30:56;100273.03;;;10.27;92.12
8653;BME280;4364;52.426;9.424;2023-04-23T05:33:24;100284.16;;;10.36;92.03
8653;BME280;4364;52.426;9.424;2023-04-23T05:35:58;100278.50;;;10.32;91.20
8653;BME280;4364;52.426;9.424;2023-04-23T05:38:24;100273.00;;;10.37;91.75
8653;BME280;4364;52.426;9.424;2023-04-23T05:40:51;100279.03;;;10.29;91.40
8653;BME280;4364;52.426;9.424;2023-04-23T05:43:18;100292.06;;;10.27;92.02
8653;BME280;4364;52.426;9.424;2023-04-23T05:45:44;100295.31;;;10.34;92.28
8653;BME280;4364;52.426;9.424;2023-04-23T05:48:11;100292.09;;;10.32;91.83
8653;BME280;4364;52.426;9.424;2023-04-23T05:50:38;100295.06;;;10.31;91.85
8653;BME280;4364;52.426;9.424;2023-04-23T05:53:04;100288.25;;;10.33;91.98
8653;BME280;4364;52.426;9.424;2023-04-23T05:55:30;100290.81;;;10.49;91.32
8653;BME280;4364;52.426;9.424;2023-04-23T05:57:57;100290.03;;;10.48;91.01
8653;BME280;4364;52.426;9.424;2023-04-23T06:00:23;100296.59;;;10.42;91.81
8653;BME280;4364;52.426;9.424;2023-04-23T06:02:50;100290.94;;;10.38;91.71
8653;BME280;4364;52.426;9.424;2023-04-23T06:05:17;100288.66;;;10.51;91.63
8653;BME280;4364;52.426;9.424;2023-04-23T06:07:45;100284.31;;;10.50;91.33
8653;BME280;4364;52.426;9.424;2023-04-23T06:10:11;100286.16;;;10.54;90.85
8653;BME280;4364;52.426;9.424;2023-04-23T06:12:38;100286.88;;;10.65;91.04
8653;BME280;4364;52.426;9.424;2023-04-23T06:15:08;100293.59;;;10.73;90.44
8653;BME280;4364;52.426;9.424;2023-04-23T06:17:36;100299.56;;;10.75;90.30
8653;BME280;4364;52.426;9.424;2023-04-23T06:20:02;100288.84;;;10.84;88.98
8653;BME280;4364;52.426;9.424;2023-04-23T06:22:30;100285.66;;;10.77;89.01
8653;BME280;4364;52.426;9.424;2023-04-23T06:24:57;100293.25;;;10.80;89.70
8653;BME280;4364;52.426;9.424;2023-04-23T06:27:24;100286.81;;;10.70;89.63
8653;BME280;4364;52.426;9.424;2023-04-23T06:29:55;100285.84;;;10.85;89.96
8653;BME280;4364;52.426;9.424;2023-04-23T06:32:22;100290.06;;;10.97;89.47
8653;BME280;4364;52.426;9.424;2023-04-23T06:34:48;100290.03;;;11.02;89.45
8653;BME280;4364;52.426;9.424;2023-04-23T06:37:27;100283.59;;;11.17;88.79
8653;BME280;4364;52.426;9.424;2023-04-23T06:39:55;100273.00;;;11.34;88.67
8653;BME280;4364;52.426;9.424;2023-04-23T06:42:22;100268.25;;;11.45;88.23
8653;BME280;4364;52.426;9.424;2023-04-23T06:45:05;100274.06;;;11.38;87.09
8653;BME280;4364;52.426;9.424;2023-04-23T06:47:32;100274.88;;;11.39;87.36
8653;BME280;4364;52.426;9.424;2023-04-23T06:49:58;100283.78;;;11.44;86.22
8653;BME280;4364;52.426;9.424;2023-04-23T06:52:26;100285.75;;;11.39;86.87
8653;BME280;4364;52.426;9.424;2023-04-23T06:54:52;100292.00;;;11.39;86.66
8653;BME280;4364;52.426;9.424;2023-04-23T06:57:19;100292.34;;;11.32;85.26
8653;BME280;4364;52.426;9.424;2023-04-23T06:59:47;100287.81;;;11.28;85.96
8653;BME280;4364;52.426;9.424;2023-04-23T07:02:14;100277.22;;;11.26;85.79
8653;BME280;4364;52.426;9.424;2023-04-23T07:04:41;100284.72;;;11.35;86.65
8653;BME280;4364;52.426;9.424;2023-04-23T07:07:08;100286.44;;;11.49;85.12
8653;BME280;4364;52.426;9.424;2023-04-23T07:09:34;100292.69;;;11.69;84.41
8653;BME280;4364;52.426;9.424;2023-04-23T07:12:01;100285.50;;;11.78;84.21
8653;BME280;4364;52.426;9.424;2023-04-23T07:14:28;100277.75;;;11.66;84.82
8653;BME280;4364;52.426;9.424;2023-04-23T07:16:55;100275.91;;;11.81;84.01
8653;BME280;4364;52.426;9.424;2023-04-23T07:19:21;100269.94;;;11.79;84.43
8653;BME280;4364;52.426;9.424;2023-04-23T07:21:48;100273.41;;;11.84;84.04
8653;BME280;4364;52.426;9.424;2023-04-23T07:24:14;100262.97;;;11.92;83.98
8653;BME280;4364;52.426;9.424;2023-04-23T07:26:41;100265.06;;;12.14;82.92
8653;BME280;4364;52.426;9.424;2023-04-23T07:29:08;100261.25;;;12.15;82.86
8653;BME280;4364;52.426;9.424;2023-04-23T07:31:38;100261.88;;;12.26;82.21
8653;BME280;4364;52.426;9.424;2023-04-23T07:34:04;100254.34;;;12.36;82.30
8653;BME280;4364;52.426;9.424;2023-04-23T07:36:31;100251.13;;;12.48;81.49
8653;BME280;4364;52.426;9.424;2023-04-23T07:38:58;100248.31;;;12.53;81.12
8653;BME280;4364;52.426;9.424;2023-04-23T07:41:25;100253.56;;;12.64;80.73
8653;BME280;4364;52.426;9.424;2023-04-23T07:43:52;100249.84;;;12.73;80.92
8653;BME280;4364;52.426;9.424;2023-04-23T07:46:18;100261.88;;;12.86;80.27
8653;BME280;4364;52.426;9.424;2023-04-23T07:48:45;100254.59;;;12.82;80.40
8653;BME280;4364;52.426;9.424;2023-04-23T07:51:11;100248.41;;;12.76;79.03
8653;BME280;4364;52.426;9.424;2023-04-23T07:53:38;100244.28;;;12.92;79.16
8653;BME280;4364;52.426;9.424;2023-04-23T07:56:04;100253.19;;;12.98;77.88
8653;BME280;4364;52.426;9.424;2023-04-23T07:58:31;100248.34;;;12.95;76.90
8653;BME280;4364;52.426;9.424;2023-04-23T08:00:58;100254.41;;;12.92;77.99
8653;BME280;4364;52.426;9.424;2023-04-23T08:03:24;100241.44;;;12.97;76.69
8653;BME280;4364;52.426;9.424;2023-04-23T08:05:51;100244.81;;;13.08;76.87
8653;BME280;4364;52.426;9.424;2023-04-23T08:08:18;100249.31;;;13.41;76.60
8653;BME280;4364;52.426;9.424;2023-04-23T08:10:45;100255.09;;;13.39;75.63
8653;BME280;4364;52.426;9.424;2023-04-23T08:13:11;100247.56;;;13.59;75.07
8653;BME280;4364;52.426;9.424;2023-04-23T08:15:38;100244.47;;;13.74;74.26
8653;BME280;4364;52.426;9.424;2023-04-23T08:18:04;100246.53;;;13.91;73.62
8653;BME280;4364;52.426;9.424;2023-04-23T08:20:31;100240.81;;;14.01;73.54
8653;BME280;4364;52.426;9.424;2023-04-23T08:22:58;100233.56;;;13.97;72.57
8653;BME280;4364;52.426;9.424;2023-04-23T08:25:24;100233.78;;;13.86;71.34
8653;BME280;4364;52.426;9.424;2023-04-23T08:27:51;100225.06;;;13.98;70.77
8653;BME280;4364;52.426;9.424;2023-04-23T08:30:18;100230.88;;;14.05;71.03
8653;BME280;4364;52.426;9.424;2023-04-23T08:32:48;100228.47;;;14.04;70.16
8653;BME280;4364;52.426;9.424;2023-04-23T08:35:15;100231.66;;;14.29;69.90
8653;BME280;4364;52.426;9.424;2023-04-23T08:37:41;100223.25;;;14.56;68.98
8653;BME280;4364;52.426;9.424;2023-04-23T08:40:08;100218.50;;;14.62;66.30
8653;BME280;4364;52.426;9.424;2023-04-23T08:45:04;100224.56;;;14.90;63.08
8653;BME280;4364;52.426;9.424;2023-04-23T08:47:31;100221.88;;;15.16;62.22
8653;BME280;4364;52.426;9.424;2023-04-23T08:49:58;100210.31;;;15.37;60.10
8653;BME280;4364;52.426;9.424;2023-04-23T08:52:25;100209.53;;;15.45;59.84
8653;BME280;4364;52.426;9.424;2023-04-23T08:54:59;100206.78;;;15.54;57.34
8653;BME280;4364;52.426;9.424;2023-04-23T08:57:26;100210.00;;;15.47;57.78
8653;BME280;4364;52.426;9.424;2023-04-23T08:59:53;100209.66;;;15.31;56.82
8653;BME280;4364;52.426;9.424;2023-04-23T09:02:21;100203.41;;;15.57;57.02
8653;BME280;4364;52.426;9.424;2023-04-23T09:04:48;100207.75;;;15.84;56.99
8653;BME280;4364;52.426;9.424;2023-04-23T09:07:18;100208.84;;;15.92;56.08
8653;BME280;4364;52.426;9.424;2023-04-23T09:09:44;100205.97;;;15.88;55.41
8653;BME280;4364;52.426;9.424;2023-04-23T09:12:11;100200.13;;;15.99;55.41
8653;BME280;4364;52.426;9.424;2023-04-23T09:14:38;100216.41;;;16.21;55.13
8653;BME280;4364;52.426;9.424;2023-04-23T09:17:04;100202.59;;;15.91;53.89
8653;BME280;4364;52.426;9.424;2023-04-23T09:19:31;100200.34;;;15.76;53.67
8653;BME280;4364;52.426;9.424;2023-04-23T09:21:58;100198.84;;;16.05;53.96
8653;BME280;4364;52.426;9.424;2023-04-23T09:24:27;100196.50;;;16.33;53.04
8653;BME280;4364;52.426;9.424;2023-04-23T09:26:53;100181.13;;;16.49;51.02
8653;BME280;4364;52.426;9.424;2023-04-23T09:29:21;100182.09;;;16.83;50.90
8653;BME280;4364;52.426;9.424;2023-04-23T09:31:50;100178.31;;;16.97;50.87
8653;BME280;4364;52.426;9.424;2023-04-23T09:34:19;100178.81;;;17.20;50.52
8653;BME280;4364;52.426;9.424;2023-04-23T09:36:48;100174.06;;;17.29;49.56
8653;BME280;4364;52.426;9.424;2023-04-23T09:39:21;100171.75;;;17.52;49.20
8653;BME280;4364;52.426;9.424;2023-04-23T09:41:50;100173.25;;;17.50;46.58
8653;BME280;4364;52.426;9.424;2023-04-23T09:44:19;100180.97;;;17.14;47.29
8653;BME280;4364;52.426;9.424;2023-04-23T09:46:48;100181.09;;;17.39;48.14
8653;BME280;4364;52.426;9.424;2023-04-23T09:49:15;100183.41;;;17.70;47.84
8653;BME280;4364;52.426;9.424;2023-04-23T09:51:46;100176.69;;;17.80;46.95
8653;BME280;4364;52.426;9.424;2023-04-23T09:54:21;100165.81;;;18.05;46.69
8653;BME280;4364;52.426;9.424;2023-04-23T09:56:50;100167.78;;;17.83;46.68
8653;BME280;4364;52.426;9.424;2023-04-23T09:59:20;100162.44;;;17.87;47.39
8653;BME280;4364;52.426;9.424;2023-04-23T10:02:06;100163.81;;;17.93;47.12
8653;BME280;4364;52.426;9.424;2023-04-23T10:04:33;100161.19;;;17.42;47.56
8653;BME280;4364;52.426;9.424;2023-04-23T10:07:02;100156.88;;;17.74;49.28
8653;BME280;4364;52.426;9.424;2023-04-23T10:09:44;100148.63;;;18.20;48.04
8653;BME280;4364;52.426;9.424;2023-04-23T10:12:13;100150.81;;;18.14;47.16
8653;BME280;4364;52.426;9.424;2023-04-23T10:14:45;100140.72;;;18.19;46.84
8653;BME280;4364;52.426;9.424;2023-04-23T10:17:12;100151.06;;;18.46;46.28
8653;BME280;4364;52.426;9.424;2023-04-23T10:19:39;100143.38;;;18.40;46.35
8653;BME280;4364;52.426;9.424;2023-04-23T10:22:09;100138.44;;;18.33;46.85
8653;BME280;4364;52.426;9.424;2023-04-23T10:24:41;100151.66;;;18.40;47.61
8653;BME280;4364;52.426;9.424;2023-04-23T10:27:14;100157.94;;;18.28;46.21
8653;BME280;4364;52.426;9.424;2023-04-23T10:29:56;100148.66;;;18.45;46.52
8653;BME280;4364;52.426;9.424;2023-04-23T10:32:23;100134.00;;;18.53;45.16
8653;BME280;4364;52.426;9.424;2023-04-23T10:34:50;100135.34;;;18.35;44.87
8653;BME280;4364;52.426;9.424;2023-04-23T10:37:17;100139.34;;;18.25;45.20
8653;BME280;4364;52.426;9.424;2023-04-23T10:39:49;100149.41;;;17.96;47.02
8653;BME280;4364;52.426;9.424;2023-04-23T10:42:19;100146.31;;;18.10;46.77
8653;BME280;4364;52.426;9.424;2023-04-23T10:44:47;100139.31;;;18.12;46.91
8653;BME280;4364;52.426;9.424;2023-04-23T10:47:21;100138.75;;;18.19;47.15
8653;BME280;4364;52.426;9.424;2023-04-23T10:49:48;100130.63;;;18.10;47.01
8653;BME280;4364;52.426;9.424;2023-04-23T10:52:16;100124.44;;;18.50;45.67
8653;BME280;4364;52.426;9.424;2023-04-23T10:54:56;100126.84;;;18.89;44.47
8653;BME280;4364;52.426;9.424;2023-04-23T10:57:23;100125.09;;;19.09;44.65
8653;BME280;4364;52.426;9.424;2023-04-23T10:59:53;100119.84;;;18.79;43.74
8653;BME280;4364;52.426;9.424;2023-04-23T11:02:24;100121.59;;;18.47;44.97
8653;BME280;4364;52.426;9.424;2023-04-23T11:04:56;100131.34;;;18.20;45.46
8653;BME280;4364;52.426;9.424;2023-04-23T11:07:31;100122.88;;;18.49;45.20
8653;BME280;4364;52.426;9.424;2023-04-23T11:09:59;100117.81;;;18.51;44.46
8653;BME280;4364;52.426;9.424;2023-04-23T11:14:55;100128.34;;;18.25;45.17
8653;BME280;4364;52.426;9.424;2023-04-23T11:17:23;100123.72;;;17.92;46.20
8653;BME280;4364;52.426;9.424;2023-04-23T11:20:12;100123.38;;;17.72;46.34
8653;BME280;4364;52.426;9.424;2023-04-23T11:22:44;100124.66;;;17.63;47.16
8653;BME280;4364;52.426;9.424;2023-04-23T11:25:13;100127.44;;;17.54;48.05
8653;BME280;4364;52.426;9.424;2023-04-23T11:27:41;100126.28;;;17.43;48.02
8653;BME280;4364;52.426;9.424;2023-04-23T11:30:16;100120.56;;;17.48;48.16
8653;BME280;4364;52.426;9.424;2023-04-23T11:32:45;100114.13;;;17.44;48.50
8653;BME280;4364;52.426;9.424;2023-04-23T11:35:17;100112.34;;;17.48;48.92
8653;BME280;4364;52.426;9.424;2023-04-23T11:37:45;100116.41;;;17.63;48.19
8653;BME280;4364;52.426;9.424;2023-04-23T11:40:14;100116.75;;;17.94;47.62
8653;BME280;4364;52.426;9.424;2023-04-23T11:42:52;100122.41;;;18.23;46.18
8653;BME280;4364;52.426;9.424;2023-04-23T11:45:21;100107.34;;;18.32;46.81
8653;BME280;4364;52.426;9.424;2023-04-23T11:47:53;100102.53;;;18.54;45.83
8653;BME280;4364;52.426;9.424;2023-04-23T11:50:28;100100.81;;;18.62;45.72
8653;BME280;4364;52.426;9.424;2023-04-23T11:52:56;100101.03;;;18.81;44.37
8653;BME280;4364;52.426;9.424;2023-04-23T11:55:22;100095.28;;;18.99;44.30
8653;BME280;4364;52.426;9.424;2023-04-23T11:57:50;100104.22;;;18.96;44.52
8653;BME280;4364;52.426;9.424;2023-04-23T12:00:20;100101.28;;;18.88;44.39
8653;BME280;4364;52.426;9.424;2023-04-23T12:02:58;100094.28;;;18.54;45.36
8653;BME280;4364;52.426;9.424;2023-04-23T12:05:30;100093.72;;;18.48;45.93
8653;BME280;4364;52.426;9.424;2023-04-23T12:08:20;100096.56;;;18.27;45.73
8653;BME280;4364;52.426;9.424;2023-04-23T12:10:52;100097.50;;;18.07;46.75
8653;BME280;4364;52.426;9.424;2023-04-23T12:13:23;100123.94;;;17.87;52.70
8653;BME280;4364;52.426;9.424;2023-04-23T12:15:53;100125.41;;;17.51;58.99
8653;BME280;4364;52.426;9.424;2023-04-23T12:18:31;100122.19;;;17.28;61.09
8653;BME280;4364;52.426;9.424;2023-04-23T12:21:09;100112.53;;;17.00;61.99
8653;BME280;4364;52.426;9.424;2023-04-23T12:23:37;100102.91;;;16.64;62.45
8653;BME280;4364;52.426;9.424;2023-04-23T12:26:09;100094.94;;;16.51;59.83
8653;BME280;4364;52.426;9.424;2023-04-23T12:28:49;100086.25;;;16.70;55.32
8653;BME280;4364;52.426;9.424;2023-04-23T12:31:21;100077.97;;;17.20;55.43
8653;BME280;4364;52.426;9.424;2023-04-23T12:34:05;100076.16;;;17.58;55.45
8653;BME280;4364;52.426;9.424;2023-04-23T12:36:33;100070.72;;;17.83;56.57
8653;BME280;4364;52.426;9.424;2023-04-23T12:39:30;100075.72;;;18.14;55.26
8653;BME280;4364;52.426;9.424;2023-04-23T12:42:04;100077.66;;;18.50;53.52
8653;BME280;4364;52.426;9.424;2023-04-23T12:44:32;100068.78;;;18.82;52.38
8653;BME280;4364;52.426;9.424;2023-04-23T12:47:02;100057.81;;;19.10;53.59
8653;BME280;4364;52.426;9.424;2023-04-23T12:49:31;100061.22;;;19.19;51.85
8653;BME280;4364;52.426;9.424;2023-04-23T12:51:59;100054.53;;;19.04;49.34
8653;BME280;4364;52.426;9.424;2023-04-23T12:54:29;100053.16;;;18.98;49.71
8653;BME280;4364;52.426;9.424;2023-04-23T12:56:57;100054.22;;;18.81;50.36
8653;BME280;4364;52.426;9.424;2023-04-23T12:59:25;100062.81;;;18.67;50.58
8653;BME280;4364;52.426;9.424;2023-04-23T13:01:51;100052.09;;;18.38;49.41
8653;BME280;4364;52.426;9.424;2023-04-23T13:04:18;100056.69;;;18.09;52.11
8653;BME280;4364;52.426;9.424;2023-04-23T13:06:45;100052.78;;;18.10;51.98
8653;BME280;4364;52.426;9.424;2023-04-23T13:09:11;100052.56;;;18.03;53.05
8653;BME280;4364;52.426;9.424;2023-04-23T13:11:39;100044.03;;;17.83;52.45
8653;BME280;4364;52.426;9.424;2023-04-23T13:14:06;100046.84;;;17.62;55.15
8653;BME280;4364;52.426;9.424;2023-04-23T13:16:33;100066.50;;;17.39;54.67
8653;BME280;4364;52.426;9.424;2023-04-23T13:19:00;100086.16;;;16.87;54.40